AirNav   TITAN Aviation Fuels
 
 1215 users online  

7TA5 Weber Ranch Airport
Caldwell, Texas, USA

GOING TO CALDWELL?


FAA INFORMATION EFFECTIVE 19 MAY 2022

Location

FAA Identifier: 7TA5
Lat/Long: 30-35-13.7240N 096-38-02.8990W
30-35.228733N 096-38.048317W
30.5871456,-96.6341386
(estimated)
Elevation: 350 ft. / 107 m (estimated)
Variation: 07E (1985)
From city: 6 miles E of CALDWELL, TX
Time zone: UTC -5 (UTC -6 during Standard Time)
Zip code: 77836

Airport Operations

Airport use: Private use. Permission required prior to landing
Activation date: 06/1989
Control tower: no
ARTCC: HOUSTON CENTER
FSS: MONTGOMERY COUNTY FLIGHT SERVICE STATION
Attendance: UNATNDD
Segmented circle: no

Airport Communications

WX AWOS-3PT at RWV (6 nm SW): 118.35 (979-567-6784)
WX ASOS at CLL (14 nm E): PHONE 979-846-1708
WX AWOS-3 at LHB (17 nm N): 118.675 (979-280-5596)
WX AWOS-3PT at CFD (17 nm NE): 125.975 (979-778-2544)

Nearby radio navigation aids

VOR radial/distance  VOR name  Freq  Var
CLLr256/11.1COLLEGE STATION VORTAC113.3008E
TNVr293/34.8NAVASOTA VOR/DME115.9008E
IDUr346/38.0INDUSTRY VORTAC110.2008E

Airport Services

Runway Information

Runway 16/34

Dimensions: 2800 x 75 ft. / 853 x 23 m
Surface: turf
RUNWAY 16  RUNWAY 34
Traffic pattern: leftleft
Obstructions: 25 ft. trees, 50 ft. from runway20 ft. pline, 50 ft. from runway

Airport Ownership and Management from official FAA records

Ownership: Privately-owned
Owner: DAVID A. WEBER
RT 3 BOX 31A
CALDWELL, TX 77836
Phone 409-272-3475
Manager: DAVID A. WEBER
RT 3 BOX 31A
CALDWELL, TX 77836
Phone 409-272-3475

Airport Operational Statistics

Aircraft based on the field: 1
Single engine airplanes: 1
    

Additional Remarks

FOR CD CTC HOUSTON APCH AT 281-443-5844.

Instrument Procedures

There are no published instrument procedures at 7TA5.

Some nearby airports with instrument procedures:

KRWV - Caldwell Municipal Airport (6 nm SW)
KCLL - Easterwood Field Airport (14 nm E)
KLHB - Hearne Municipal Airport (17 nm N)
KCFD - Coulter Field Airport (17 nm NE)
11R - Brenham Municipal Airport (26 nm SE)
 
Loc | Ops | Rwys | IFR | FBO | Links
Com | Nav | Svcs | Stats | Notes
Area around 7TA5 (Weber Ranch Airport)
 
Road maps at: MapQuest Bing Google
 
Aerial photo
No photo
 
Sectional chart

 
Airport distance calculator
Flying to Weber Ranch Airport? Find the distance to fly.

From to 7TA5

Sunrise and sunset
Times for 27-May-2022
 Local
(UTC-5)
 Zulu
(UTC)
Morning civil twilight06:0011:00
Sunrise06:2711:27
Sunset20:2001:20
Evening civil twilight20:4701:47

Current date and time
Zulu (UTC)  27-May-2022 22:01:06
Local (UTC-5)  27-May-2022 17:01:06
 
METAR
KRWV 
6nm SW 
272135Z AUTO 01004KT 10SM CLR 34/15 A2996 RMK AO2 T03390155
KCLL 
14nm E 
272153Z 30006KT 10SM CLR 35/17 A2994 RMK AO2 SLP134 T03500167
KLHB 
17nm N 
272155Z AUTO 06003KT 10SM CLR 35/15 A2996 RMK AO2 T03450153
KCFD 
17nm NE 
272155Z AUTO 00000KT 10SM CLR 34/16 A2996 RMK AO2 T03360157
TAF
KCLL 
14nm E 
271726Z 2718/2818 30007KT P6SM SKC FM272100 36008KT P6SM SKC FM280000 05006KT P6SM SKC FM280500 VRB05KT P6SM SKC FM281600 18007KT P6SM FEW090
NOTAMs
Click for the latest NOTAMs
NOTAMs are issued by the DoD/FAA and will open in a separate window not controlled by AirNav.

 

 
 

Would you like to see your business listed on this page?

 If your business provides an interesting product or service to pilots, flight crews, aircraft, or users of the Weber Ranch Airport, you should consider listing it here.  To start the listing process, click on the button below
 
Add a business
 

Other Pages about Weber Ranch Airport

Update a link
 
Copyright © AirNav, LLC. All rights reserved. Privacy Policy  Contact